Time;durP1;ratioP1;P1;durP2;ratioP2;P2;SDS_P1;SDS_P2;PMS_P1;PMS_P2;Temp;Humidity;BMP_temperature;BMP_pressure;BME280_temperature;BME280_humidity;BME280_pressure;Samples;Min_cycle;Max_cycle;Signal;HPM_P1;HPM_P2
2022/01/05 00:00:51;;;;;;;;;;;;;;;7.37;100.00;96424.12;1621568;87;20312;-90
2022/01/05 00:03:17;;;;;;;;;;;;;;;7.36;100.00;96423.33;1619416;87;25653;-89
2022/01/05 00:05:43;;;;;;;;;;;;;;;7.37;100.00;96433.22;1625755;87;22050;-89
2022/01/05 00:08:09;;;;;;;;;;;;;;;7.35;100.00;96432.08;1620328;88;26010;-90
2022/01/05 00:10:35;;;;;;;;;;;;;;;7.41;100.00;96438.52;1622837;88;24393;-89
2022/01/05 00:13:01;;;;;;;;;;;;;;;7.44;100.00;96423.45;1621812;88;20291;-89
2022/01/05 00:15:30;;;;;;;;;;;;;;;7.50;100.00;96425.50;1624922;87;24811;-90
2022/01/05 00:17:56;;;;;;;;;;;;;;;7.56;100.00;96424.13;1620609;88;22083;-89
2022/01/05 00:20:23;;;;;;;;;;;;;;;7.65;100.00;96438.91;1587866;89;25858;-89
2022/01/05 00:22:55;;;;;;;;;;;;;;;7.69;100.00;96442.08;1595829;88;24524;-93
2022/01/05 00:25:26;;;;;;;;;;;;;;;7.72;100.00;96438.71;1604953;87;20239;-91
2022/01/05 00:27:52;;;;;;;;;;;;;;;7.71;100.00;96428.43;1595373;88;24876;-92
2022/01/05 00:30:18;;;;;;;;;;;;;;;7.67;100.00;96434.87;1598281;87;22042;-91
2022/01/05 00:33:02;;;;;;;;;;;;;;;7.72;100.00;96424.88;1593739;89;21785;-92
2022/01/05 00:35:53;;;;;;;;;;;;;;;7.77;100.00;96419.59;1591044;88;24493;-92
2022/01/05 00:38:22;;;;;;;;;;;;;;;7.84;100.00;96427.20;1582718;89;20263;-87
2022/01/05 00:40:48;;;;;;;;;;;;;;;7.92;100.00;96431.69;1614634;88;24858;-89
2022/01/05 00:43:14;;;;;;;;;;;;;;;7.96;100.00;96435.17;1578917;89;22069;-89
2022/01/05 00:45:42;;;;;;;;;;;;;;;8.01;100.00;96436.08;1582718;89;26035;-89
2022/01/05 00:48:08;;;;;;;;;;;;;;;8.02;100.00;96439.00;1613185;88;25194;-89
2022/01/05 00:50:34;;;;;;;;;;;;;;;8.02;100.00;96448.63;1609042;87;20402;-89
2022/01/05 00:53:01;;;;;;;;;;;;;;;8.03;100.00;96455.45;1603398;89;20308;-89
2022/01/05 00:55:27;;;;;;;;;;;;;;;8.04;100.00;96455.80;1604229;89;22134;-89
2022/01/05 00:57:53;;;;;;;;;;;;;;;8.08;100.00;96444.13;1603653;89;26066;-89
2022/01/05 01:00:19;;;;;;;;;;;;;;;7.97;100.00;96447.23;1602482;88;24519;-89
2022/01/05 01:02:45;;;;;;;;;;;;;;;7.92;100.00;96442.93;1602967;88;20227;-90
2022/01/05 01:05:14;;;;;;;;;;;;;;;7.82;100.00;96442.60;1603554;88;24901;-86
2022/01/05 01:07:44;;;;;;;;;;;;;;;7.84;100.00;96443.30;1602895;88;21984;-90
2022/01/05 01:10:10;;;;;;;;;;;;;;;7.81;100.00;96441.78;1603013;88;26169;-89
2022/01/05 01:12:37;;;;;;;;;;;;;;;7.76;100.00;96445.28;1606730;87;24652;-89
2022/01/05 01:15:04;;;;;;;;;;;;;;;7.75;100.00;96441.03;1603431;89;20290;-86
2022/01/05 01:17:30;;;;;;;;;;;;;;;7.79;100.00;96438.52;1602871;89;24800;-86
2022/01/05 01:19:56;;;;;;;;;;;;;;;7.78;100.00;96431.66;1603268;89;22044;-86
2022/01/05 01:22:23;;;;;;;;;;;;;;;7.84;100.00;96445.42;1604663;87;26062;-86
2022/01/05 01:24:50;;;;;;;;;;;;;;;7.90;100.00;96445.34;1605617;88;24398;-87
2022/01/05 01:27:16;;;;;;;;;;;;;;;7.87;100.00;96442.53;1603003;89;20167;-87
2022/01/05 01:29:42;;;;;;;;;;;;;;;7.85;100.00;96432.75;1597768;87;24772;-87
2022/01/05 01:32:08;;;;;;;;;;;;;;;7.79;100.00;96435.91;1611411;87;22017;-87
2022/01/05 01:34:34;;;;;;;;;;;;;;;7.74;100.00;96440.71;1611355;89;26186;-86
2022/01/05 01:37:00;;;;;;;;;;;;;;;7.71;100.00;96433.64;1611558;87;24568;-86
2022/01/05 01:39:26;;;;;;;;;;;;;;;7.65;100.00;96442.81;1612499;87;20204;-87
2022/01/05 01:41:53;;;;;;;;;;;;;;;7.70;100.00;96447.13;1616860;87;24903;-86
2022/01/05 01:44:19;;;;;;;;;;;;;;;7.76;100.00;96455.70;1557460;87;22067;-86
2022/01/05 01:46:51;;;;;;;;;;;;;;;7.84;100.00;96457.14;1588364;88;25989;-86
2022/01/05 01:49:17;;;;;;;;;;;;;;;7.84;100.00;96458.45;1559309;90;24522;-86
2022/01/05 01:51:43;;;;;;;;;;;;;;;7.81;100.00;96454.80;1558430;90;20297;-86
2022/01/05 01:54:10;;;;;;;;;;;;;;;7.86;100.00;96463.49;1581034;90;24772;-86
2022/01/05 01:56:37;;;;;;;;;;;;;;;7.86;100.00;96472.61;1560428;89;22101;-86
2022/01/05 01:59:03;;;;;;;;;;;;;;;7.88;100.00;96474.13;1565790;90;26005;-86
2022/01/05 02:01:30;;;;;;;;;;;;;;;7.89;100.00;96444.52;1581903;89;24476;-88
2022/01/05 02:03:56;;;;;;;;;;;;;;;7.78;100.00;96435.56;1582940;89;20233;-89
2022/01/05 02:06:22;;;;;;;;;;;;;;;7.70;100.00;96447.61;1577877;90;24992;-89
2022/01/05 02:08:53;;;;;;;;;;;;;;;7.70;100.00;96451.52;1582698;89;22123;-89
2022/01/05 02:11:19;;;;;;;;;;;;;;;7.74;100.00;96447.70;1579898;89;26030;-89
2022/01/05 02:13:51;;;;;;;;;;;;;;;7.73;100.00;96435.63;1581210;89;24340;-89
2022/01/05 02:16:22;;;;;;;;;;;;;;;7.72;100.00;96436.59;1581594;90;20225;-90
2022/01/05 02:19:00;;;;;;;;;;;;;;;7.63;100.00;96439.55;1581062;90;24778;-89
2022/01/05 02:21:33;;;;;;;;;;;;;;;7.62;100.00;96443.59;1580500;89;22142;-85
2022/01/05 02:24:00;;;;;;;;;;;;;;;7.65;100.00;96439.39;1581411;89;26188;-86
2022/01/05 02:26:26;;;;;;;;;;;;;;;7.72;100.00;96437.41;1581110;89;24410;-86
2022/01/05 02:28:54;;;;;;;;;;;;;;;7.65;100.00;96419.39;1558643;91;20479;-86
2022/01/05 02:31:20;;;;;;;;;;;;;;;7.56;100.00;96434.55;1596400;88;24793;-85
2022/01/05 02:33:49;;;;;;;;;;;;;;;7.54;100.00;96435.98;1621197;88;22077;-88
2022/01/05 02:36:20;;;;;;;;;;;;;;;7.54;100.00;96442.95;1598241;88;25922;-89
2022/01/05 02:38:46;;;;;;;;;;;;;;;7.54;100.00;96429.47;1632588;86;24656;-89
2022/01/05 02:41:13;;;;;;;;;;;;;;;7.51;100.00;96423.25;1597514;88;20262;-86
2022/01/05 02:43:45;;;;;;;;;;;;;;;7.46;100.00;96425.92;1608489;88;20827;-87
2022/01/05 02:46:18;;;;;;;;;;;;;;;7.49;100.00;96426.45;1615019;88;22147;-91
2022/01/05 02:48:46;;;;;;;;;;;;;;;7.48;100.00;96409.19;1614905;88;26635;-87
2022/01/05 02:51:13;;;;;;;;;;;;;;;7.43;100.00;96393.65;1591833;88;25184;-86
2022/01/05 02:53:39;;;;;;;;;;;;;;;7.38;100.00;96402.34;1607597;88;20262;-89
2022/01/05 02:56:12;;;;;;;;;;;;;;;7.39;100.00;96398.80;1613423;88;24829;-91
2022/01/05 02:58:41;;;;;;;;;;;;;;;7.48;100.00;96391.45;1609494;88;22203;-89
2022/01/05 03:01:07;;;;;;;;;;;;;;;7.50;100.00;96388.25;1610802;88;26060;-89
2022/01/05 03:03:33;;;;;;;;;;;;;;;7.48;100.00;96369.33;1609241;88;24439;-86
2022/01/05 03:06:03;;;;;;;;;;;;;;;7.43;100.00;96362.42;1633310;85;20500;-92
2022/01/05 03:08:39;;;;;;;;;;;;;;;7.36;100.00;96354.84;1621291;87;24811;-91
2022/01/05 03:11:05;;;;;;;;;;;;;;;7.32;100.00;96352.98;1626552;86;22079;-91
2022/01/05 03:13:31;;;;;;;;;;;;;;;7.32;100.00;96346.95;1625418;87;25981;-86
2022/01/05 03:15:58;;;;;;;;;;;;;;;7.26;100.00;96330.12;1627441;88;24276;-86
2022/01/05 03:18:24;;;;;;;;;;;;;;;7.21;100.00;96315.88;1625694;86;20458;-87
2022/01/05 03:20:50;;;;;;;;;;;;;;;7.21;100.00;96335.39;1621860;86;24815;-89
2022/01/05 03:23:16;;;;;;;;;;;;;;;7.28;100.00;96345.59;1623910;87;22153;-86
2022/01/05 03:25:42;;;;;;;;;;;;;;;7.35;100.00;96354.02;1624445;87;26496;-89
2022/01/05 03:28:15;;;;;;;;;;;;;;;7.41;100.00;96352.17;1623441;87;24523;-90
2022/01/05 03:30:41;;;;;;;;;;;;;;;7.49;100.00;96339.75;1623504;86;20587;-88
2022/01/05 03:33:12;;;;;;;;;;;;;;;7.50;100.00;96333.59;1598068;88;24801;-88
2022/01/05 03:35:37;;;;;;;;;;;;;;;7.38;100.00;96334.22;1621447;86;22146;-86
2022/01/05 03:38:04;;;;;;;;;;;;;;;7.37;100.00;96326.06;1623390;87;25986;-89
2022/01/05 03:40:31;;;;;;;;;;;;;;;7.37;100.00;96330.45;1619563;88;24521;-89
2022/01/05 03:42:57;;;;;;;;;;;;;;;7.34;100.00;96330.27;1616921;88;20237;-86
2022/01/05 03:45:30;;;;;;;;;;;;;;;7.35;100.00;96323.28;1618980;88;24806;-88
2022/01/05 03:47:56;;;;;;;;;;;;;;;7.38;100.00;96338.12;1618840;88;22072;-89
2022/01/05 03:50:22;;;;;;;;;;;;;;;7.47;100.00;96339.88;1617076;88;26052;-89
2022/01/05 03:52:48;;;;;;;;;;;;;;;7.58;100.00;96343.31;1617550;88;25426;-89
2022/01/05 03:55:14;;;;;;;;;;;;;;;7.56;100.00;96348.17;1617475;88;20234;-88
2022/01/05 03:57:40;;;;;;;;;;;;;;;7.54;100.00;96355.77;1617015;88;24825;-88
2022/01/05 04:00:14;;;;;;;;;;;;;;;7.54;100.00;96370.91;1618039;88;22062;-88
2022/01/05 04:02:41;;;;;;;;;;;;;;;7.58;100.00;96378.45;1618309;88;26069;-89
2022/01/05 04:05:07;;;;;;;;;;;;;;;7.58;100.00;96387.09;1620086;88;24560;-89
2022/01/05 04:07:34;;;;;;;;;;;;;;;7.54;100.00;96381.31;1619690;88;20229;-92
2022/01/05 04:10:06;;;;;;;;;;;;;;;7.54;100.00;96385.22;1618574;88;25547;-92
2022/01/05 04:12:32;;;;;;;;;;;;;;;7.49;100.00;96392.62;1632880;85;22063;-88
2022/01/05 04:14:58;;;;;;;;;;;;;;;7.44;100.00;96386.19;1604338;87;26057;-88
2022/01/05 04:17:24;;;;;;;;;;;;;;;7.41;100.00;96383.40;1608815;87;24537;-86
2022/01/05 04:19:56;;;;;;;;;;;;;;;7.45;100.00;96389.14;1594195;86;20231;-86
2022/01/05 04:22:23;;;;;;;;;;;;;;;7.45;100.00;96400.38;1625733;88;24811;-86
2022/01/05 04:24:49;;;;;;;;;;;;;;;7.49;100.00;96410.02;1617539;88;21948;-89
2022/01/05 04:27:15;;;;;;;;;;;;;;;7.49;100.00;96403.03;1617062;88;26072;-86
2022/01/05 04:29:43;;;;;;;;;;;;;;;7.49;100.00;96410.84;1616799;88;24578;-86
2022/01/05 04:32:09;;;;;;;;;;;;;;;7.47;100.00;96417.16;1617028;87;20180;-86
2022/01/05 04:34:37;;;;;;;;;;;;;;;7.41;100.00;96418.53;1620261;88;24933;-86
2022/01/05 04:37:07;;;;;;;;;;;;;;;7.39;100.00;96415.23;1616521;88;22075;-87
2022/01/05 04:39:34;;;;;;;;;;;;;;;7.35;100.00;96418.25;1618413;88;26129;-86
2022/01/05 04:42:03;;;;;;;;;;;;;;;7.33;100.00;96420.98;1617720;88;24468;-91
2022/01/05 04:44:29;;;;;;;;;;;;;;;7.32;100.00;96416.72;1613756;87;20263;-91
2022/01/05 04:46:57;;;;;;;;;;;;;;;7.32;100.00;96412.82;1614855;88;20919;-91
2022/01/05 04:49:23;;;;;;;;;;;;;;;7.36;100.00;96412.09;1619040;87;22855;-90
2022/01/05 04:51:50;;;;;;;;;;;;;;;7.35;100.00;96414.34;1619264;87;25993;-87
2022/01/05 04:54:16;;;;;;;;;;;;;;;7.34;100.00;96417.42;1618725;88;24517;-87
2022/01/05 04:56:42;;;;;;;;;;;;;;;7.32;100.00;96420.63;1617158;88;20229;-88
2022/01/05 04:59:09;;;;;;;;;;;;;;;7.34;100.00;96415.30;1614758;88;24798;-91
2022/01/05 05:01:38;;;;;;;;;;;;;;;7.29;100.00;96416.19;1618228;88;22657;-89
2022/01/05 05:04:04;;;;;;;;;;;;;;;7.27;100.00;96415.02;1618126;87;26091;-89
2022/01/05 05:06:30;;;;;;;;;;;;;;;7.32;100.00;96415.42;1618575;87;24501;-91
2022/01/05 05:08:56;;;;;;;;;;;;;;;7.34;100.00;96417.42;1624590;87;20177;-88
2022/01/05 05:11:22;;;;;;;;;;;;;;;7.35;100.00;96415.64;1617799;88;24763;-87
2022/01/05 05:13:48;;;;;;;;;;;;;;;7.34;100.00;96408.80;1620341;88;21946;-89
2022/01/05 05:16:14;;;;;;;;;;;;;;;7.35;100.00;96410.44;1619192;88;26015;-91
2022/01/05 05:18:41;;;;;;;;;;;;;;;7.28;100.00;96397.15;1619355;87;24494;-92
2022/01/05 05:21:07;;;;;;;;;;;;;;;7.28;100.00;96387.22;1620099;87;20463;-86
2022/01/05 05:23:33;;;;;;;;;;;;;;;7.28;100.00;96393.72;1618446;87;24811;-86
2022/01/05 05:25:59;;;;;;;;;;;;;;;7.28;100.00;96408.03;1618183;87;22056;-89
2022/01/05 05:28:25;;;;;;;;;;;;;;;7.29;100.00;96422.22;1619126;87;26039;-89
2022/01/05 05:30:54;;;;;;;;;;;;;;;7.23;100.00;96434.46;1618497;88;20938;-88
2022/01/05 05:33:21;;;;;;;;;;;;;;;7.20;100.00;96426.91;1620503;87;20366;-88
2022/01/05 05:35:47;;;;;;;;;;;;;;;7.20;100.00;96426.91;1627115;88;24796;-86
2022/01/05 05:38:15;;;;;;;;;;;;;;;7.17;100.00;96420.69;1625785;87;22259;-86
2022/01/05 05:40:46;;;;;;;;;;;;;;;7.08;100.00;96418.44;1623960;87;26822;-88
2022/01/05 05:43:12;;;;;;;;;;;;;;;7.00;100.00;96414.84;1617948;87;24650;-86
2022/01/05 05:45:38;;;;;;;;;;;;;;;6.93;100.00;96411.95;1624612;87;20556;-88
2022/01/05 05:48:04;;;;;;;;;;;;;;;6.86;100.00;96406.97;1626212;87;24735;-88
2022/01/05 05:50:30;;;;;;;;;;;;;;;6.82;100.00;96416.47;1621985;87;22038;-86
2022/01/05 05:52:56;;;;;;;;;;;;;;;6.78;100.00;96401.59;1621781;86;26064;-86
2022/01/05 05:55:23;;;;;;;;;;;;;;;6.78;100.00;96400.77;1624737;86;24427;-92
2022/01/05 05:57:49;;;;;;;;;;;;;;;6.81;100.00;96415.65;1619415;87;20213;-91
2022/01/05 06:00:15;;;;;;;;;;;;;;;6.83;100.00;96415.02;1623552;86;24834;-86
2022/01/05 06:02:41;;;;;;;;;;;;;;;6.82;100.00;96412.06;1626058;86;21945;-90
2022/01/05 06:05:10;;;;;;;;;;;;;;;6.90;100.00;96412.71;1624710;87;26229;-91
2022/01/05 06:07:36;;;;;;;;;;;;;;;6.87;100.00;96408.62;1626470;87;24344;-88
2022/01/05 06:10:03;;;;;;;;;;;;;;;6.84;100.00;96416.67;1623007;87;20191;-88
2022/01/05 06:12:29;;;;;;;;;;;;;;;6.80;100.00;96414.47;1624088;88;24746;-90
2022/01/05 06:15:07;;;;;;;;;;;;;;;6.84;100.00;96423.17;1623381;87;21953;-91
2022/01/05 06:17:36;;;;;;;;;;;;;;;6.90;100.00;96425.71;1612625;86;26018;-91
2022/01/05 06:20:05;;;;;;;;;;;;;;;6.92;100.00;96429.84;1605688;88;24475;-92
2022/01/05 06:22:31;;;;;;;;;;;;;;;6.91;100.00;96421.69;1623597;88;20233;-89
2022/01/05 06:24:57;;;;;;;;;;;;;;;6.94;100.00;96429.20;1625763;88;25429;-88
2022/01/05 06:27:29;;;;;;;;;;;;;;;6.97;100.00;96453.66;1625768;87;20459;-86
2022/01/05 06:29:55;;;;;;;;;;;;;;;6.94;100.00;96443.51;1623706;86;26097;-91
2022/01/05 06:32:22;;;;;;;;;;;;;;;6.89;100.00;96441.78;1620332;87;24426;-91
2022/01/05 06:34:48;;;;;;;;;;;;;;;6.94;100.00;96442.68;1597004;88;20220;-89
2022/01/05 06:37:17;;;;;;;;;;;;;;;6.94;100.00;96434.87;1620306;88;24810;-86
2022/01/05 06:39:43;;;;;;;;;;;;;;;6.98;100.00;96450.08;1628336;88;22892;-87
2022/01/05 06:42:09;;;;;;;;;;;;;;;7.09;100.00;96447.87;1627940;86;26116;-86
2022/01/05 06:44:35;;;;;;;;;;;;;;;7.09;100.00;96447.36;1627426;86;24483;-88
2022/01/05 06:47:01;;;;;;;;;;;;;;;7.14;100.00;96453.02;1628763;88;20282;-87
2022/01/05 06:49:31;;;;;;;;;;;;;;;7.21;100.00;96458.48;1599894;88;24816;-87
2022/01/05 06:51:58;;;;;;;;;;;;;;;7.28;100.00;96463.97;1628807;86;22052;-86
2022/01/05 06:54:24;;;;;;;;;;;;;;;7.35;100.00;96455.50;1626784;87;26061;-89
2022/01/05 06:56:50;;;;;;;;;;;;;;;7.39;100.00;96449.06;1599622;89;24542;-89
2022/01/05 06:59:16;;;;;;;;;;;;;;;7.38;100.00;96450.48;1599693;88;20628;-90
2022/01/05 07:01:42;;;;;;;;;;;;;;;7.41;100.00;96449.75;1599536;88;24745;-88
2022/01/05 07:04:08;;;;;;;;;;;;;;;7.44;100.00;96453.38;1599661;88;22762;-88
2022/01/05 07:06:34;;;;;;;;;;;;;;;7.41;100.00;96463.24;1599205;88;21130;-89
2022/01/05 07:09:00;;;;;;;;;;;;;;;7.37;100.00;96457.47;1598927;88;25147;-90
2022/01/05 07:11:26;;;;;;;;;;;;;;;7.38;100.00;96454.39;1600092;89;20248;-91
2022/01/05 07:13:55;;;;;;;;;;;;;;;7.29;100.00;96444.80;1599756;88;24739;-91
2022/01/05 07:16:22;;;;;;;;;;;;;;;7.13;100.00;96438.36;1589534;89;22611;-86
2022/01/05 07:18:48;;;;;;;;;;;;;;;7.02;100.00;96435.88;1608145;88;26057;-86
2022/01/05 07:21:14;;;;;;;;;;;;;;;7.00;100.00;96431.27;1609321;87;24650;-91
2022/01/05 07:23:40;;;;;;;;;;;;;;;7.10;100.00;96439.91;1612103;87;20326;-89
2022/01/05 07:26:06;;;;;;;;;;;;;;;7.20;100.00;96434.72;1611996;88;24747;-88
2022/01/05 07:28:32;;;;;;;;;;;;;;;7.28;100.00;96440.55;1612383;87;21954;-88
2022/01/05 07:30:59;;;;;;;;;;;;;;;7.26;100.00;96436.78;1610894;89;26748;-88
2022/01/05 07:33:26;;;;;;;;;;;;;;;7.28;100.00;96438.78;1611247;89;24592;-91
2022/01/05 07:35:52;;;;;;;;;;;;;;;7.33;100.00;96444.88;1581106;89;20260;-86
2022/01/05 07:38:26;;;;;;;;;;;;;;;7.28;100.00;96440.55;1582196;89;24929;-91
2022/01/05 07:40:53;;;;;;;;;;;;;;;7.23;100.00;96442.74;1581018;89;22064;-88
2022/01/05 07:43:22;;;;;;;;;;;;;;;7.18;100.00;96444.92;1581203;90;25945;-88
2022/01/05 07:45:47;;;;;;;;;;;;;;;7.14;100.00;96442.61;1581242;90;25312;-90
2022/01/05 07:48:16;;;;;;;;;;;;;;;7.06;100.00;96438.55;1583683;89;20354;-90
2022/01/05 07:50:43;;;;;;;;;;;;;;;7.05;100.00;96436.89;1581299;90;24780;-86
2022/01/05 07:53:09;;;;;;;;;;;;;;;7.01;100.00;96440.73;1581393;89;21946;-91
2022/01/05 07:55:36;;;;;;;;;;;;;;;6.99;100.00;96439.20;1580754;90;26093;-89
2022/01/05 07:58:06;;;;;;;;;;;;;;;6.97;100.00;96432.03;1580542;89;24502;-91
2022/01/05 08:00:32;;;;;;;;;;;;;;;6.96;100.00;96427.78;1582190;88;20602;-86
2022/01/05 08:03:00;;;;;;;;;;;;;;;6.95;100.00;96432.16;1580803;89;24978;-90
2022/01/05 08:05:28;;;;;;;;;;;;;;;6.93;100.00;96423.66;1581211;89;22641;-91
2022/01/05 08:07:54;;;;;;;;;;;;;;;6.94;100.00;96436.18;1581792;88;26058;-86
2022/01/05 08:10:20;;;;;;;;;;;;;;;6.87;100.00;96435.09;1581870;88;24409;-90
2022/01/05 08:12:49;;;;;;;;;;;;;;;6.86;100.00;96439.94;1580606;88;20495;-89
2022/01/05 08:15:21;;;;;;;;;;;;;;;6.78;100.00;96450.98;1581207;89;25415;-92
2022/01/05 08:17:47;;;;;;;;;;;;;;;6.72;100.00;96466.64;1580975;90;22005;-90
2022/01/05 08:20:13;;;;;;;;;;;;;;;6.62;100.00;96478.78;1581172;88;25475;-90
2022/01/05 08:22:40;;;;;;;;;;;;;;;6.54;100.00;96478.63;1581030;89;24433;-86
2022/01/05 08:25:08;;;;;;;;;;;;;;;6.48;100.00;96481.73;1581997;89;20229;-86
2022/01/05 08:27:34;;;;;;;;;;;;;;;6.45;100.00;96485.05;1580928;88;24813;-91
2022/01/05 08:30:04;;;;;;;;;;;;;;;6.39;100.00;96485.09;1581475;89;22009;-90
2022/01/05 08:32:28;;;;;;;;;;;;;;;6.34;100.00;96481.23;1582172;89;26066;-89
2022/01/05 08:34:54;;;;;;;;;;;;;;;6.33;100.00;96475.72;1594873;88;24529;-90
2022/01/05 08:37:27;;;;;;;;;;;;;;;6.30;100.00;96477.61;1608518;89;20175;-91
2022/01/05 08:39:53;;;;;;;;;;;;;;;6.23;100.00;96480.36;1608462;89;24831;-90
2022/01/05 08:42:29;;;;;;;;;;;;;;;6.17;100.00;96489.96;1608343;89;21958;-91
2022/01/05 08:44:55;;;;;;;;;;;;;;;6.12;100.00;96499.91;1625281;86;26823;-88
2022/01/05 08:47:22;;;;;;;;;;;;;;;6.08;100.00;96502.42;1588272;88;25139;-89
2022/01/05 08:49:48;;;;;;;;;;;;;;;6.00;100.00;96503.51;1593788;88;20363;-90
2022/01/05 08:52:14;;;;;;;;;;;;;;;5.97;100.00;96508.14;1598693;89;20337;-89
2022/01/05 08:54:40;;;;;;;;;;;;;;;5.93;100.00;96506.28;1598894;89;21967;-88
2022/01/05 08:57:06;;;;;;;;;;;;;;;5.92;100.00;96517.61;1599861;89;26012;-86
2022/01/05 08:59:32;;;;;;;;;;;;;;;5.89;100.00;96513.98;1605841;87;24438;-88
2022/01/05 09:02:00;;;;;;;;;;;;;;;5.91;100.00;96506.88;1587637;88;20380;-88
2022/01/05 09:04:26;;;;;;;;;;;;;;;5.91;100.00;96510.77;1613927;88;24827;-86
2022/01/05 09:06:52;;;;;;;;;;;;;;;5.93;100.00;96510.17;1611615;88;21985;-86
2022/01/05 09:09:19;;;;;;;;;;;;;;;5.94;100.00;96522.69;1615373;88;26012;-86
2022/01/05 09:11:45;;;;;;;;;;;;;;;5.93;100.00;96520.56;1611367;88;24413;-90
2022/01/05 09:14:13;;;;;;;;;;;;;;;5.93;100.00;96530.95;1613679;88;20332;-87
2022/01/05 09:17:04;;;;;;;;;;;;;;;5.82;100.00;96527.89;1617653;88;24838;-90
2022/01/05 09:19:30;;;;;;;;;;;;;;;5.95;100.00;96538.59;1614475;88;22160;-86
2022/01/05 09:21:56;;;;;;;;;;;;;;;5.97;100.00;96533.63;1590494;89;25792;-88
2022/01/05 09:24:25;;;;;;;;;;;;;;;6.02;100.00;96534.08;1604628;88;24783;-90
2022/01/05 09:26:51;;;;;;;;;;;;;;;6.06;100.00;96526.84;1598657;89;20582;-86
2022/01/05 09:29:21;;;;;;;;;;;;;;;6.05;100.00;96527.35;1597548;89;25475;-91
2022/01/05 09:31:47;;;;;;;;;;;;;;;6.08;100.00;96530.98;1611595;88;22095;-88
2022/01/05 09:34:13;;;;;;;;;;;;;;;6.10;100.00;96536.88;1606225;86;26814;-87
2022/01/05 09:36:44;;;;;;;;;;;;;;;6.13;100.00;96534.02;1604501;88;20282;-90
2022/01/05 09:41:58;;;;;;;;;;;;;;;6.18;100.00;96536.23;1623128;87;24770;-89
2022/01/05 09:44:27;;;;;;;;;;;;;;;6.21;100.00;96521.24;1596671;89;22242;-91
2022/01/05 09:47:01;;;;;;;;;;;;;;;6.20;100.00;96518.77;1618807;87;26726;-91
2022/01/05 09:49:29;;;;;;;;;;;;;;;6.18;100.00;96521.95;1620342;87;25339;-90
2022/01/05 09:51:56;;;;;;;;;;;;;;;6.18;100.00;96520.17;1629131;86;20548;-87
2022/01/05 09:54:22;;;;;;;;;;;;;;;6.20;100.00;96522.66;1589424;88;25016;-91
2022/01/05 09:56:49;;;;;;;;;;;;;;;6.19;100.00;96522.30;1596995;88;22004;-90
2022/01/05 09:59:16;;;;;;;;;;;;;;;6.18;100.00;96520.66;1615937;87;26097;-90
2022/01/05 10:01:42;;;;;;;;;;;;;;;6.19;100.00;96517.11;1605950;87;24596;-88
2022/01/05 10:04:08;;;;;;;;;;;;;;;6.21;100.00;96516.52;1603799;88;20233;-91
2022/01/05 10:06:37;;;;;;;;;;;;;;;6.27;100.00;96517.31;1607141;89;24908;-88
2022/01/05 10:09:04;;;;;;;;;;;;;;;6.29;100.00;96522.71;1608834;88;21983;-86
2022/01/05 10:11:30;;;;;;;;;;;;;;;6.30;100.00;96524.36;1602720;88;26166;-88
2022/01/05 10:13:56;;;;;;;;;;;;;;;6.30;100.00;96523.53;1597724;88;24573;-89
2022/01/05 10:16:24;;;;;;;;;;;;;;;6.29;100.00;96519.28;1569631;90;20356;-91
2022/01/05 10:18:50;;;;;;;;;;;;;;;6.30;100.00;96519.17;1574500;90;24770;-87
2022/01/05 10:21:17;;;;;;;;;;;;;;;6.31;100.00;96518.70;1589515;90;21898;-91
2022/01/05 10:23:49;;;;;;;;;;;;;;;6.33;100.00;96514.68;1606072;88;25741;-89
2022/01/05 10:26:23;;;;;;;;;;;;;;;6.42;100.00;96511.30;1612275;88;24470;-88
2022/01/05 10:28:52;;;;;;;;;;;;;;;6.45;100.00;96508.44;1577782;89;20298;-87
2022/01/05 10:31:22;;;;;;;;;;;;;;;6.46;100.00;96510.09;1574562;90;24756;-91
2022/01/05 10:33:49;;;;;;;;;;;;;;;6.48;100.00;96503.00;1586072;90;22162;-89
2022/01/05 10:36:15;;;;;;;;;;;;;;;6.46;100.00;96495.80;1637231;86;25991;-92
2022/01/05 10:38:52;;;;;;;;;;;;;;;6.41;100.00;96503.16;1639401;86;24457;-86
2022/01/05 10:41:22;;;;;;;;;;;;;;;6.39;100.00;96505.05;1622604;87;20332;-91
2022/01/05 10:44:08;;;;;;;;;;;;;;;6.38;100.00;96504.25;1623292;86;24881;-86
2022/01/05 10:46:35;;;;;;;;;;;;;;;6.35;100.00;96504.49;1618515;86;22167;-87
2022/01/05 10:49:04;;;;;;;;;;;;;;;6.36;100.00;96504.02;1627407;86;26061;-87
2022/01/05 10:51:34;;;;;;;;;;;;;;;6.36;100.00;96517.84;1621162;86;24523;-92
2022/01/05 10:54:19;;;;;;;;;;;;;;;6.38;100.00;96517.72;1623491;86;20374;-91
2022/01/05 10:56:51;;;;;;;;;;;;;;;6.36;100.00;96513.94;1621845;86;24787;-92
2022/01/05 10:59:28;;;;;;;;;;;;;;;6.32;100.00;96505.23;1625271;86;22271;-89
2022/01/05 11:01:53;;;;;;;;;;;;;;;6.33;100.00;96508.19;1626037;87;26002;-92
2022/01/05 11:04:20;;;;;;;;;;;;;;;6.35;100.00;96509.69;1619688;86;24537;-87
2022/01/05 11:07:15;;;;;;;;;;;;;;;6.36;100.00;96507.92;1595585;88;20193;-91
2022/01/05 11:09:43;;;;;;;;;;;;;;;6.35;100.00;96503.66;1628382;86;24867;-88
2022/01/05 11:12:10;;;;;;;;;;;;;;;6.35;100.00;96499.77;1619843;88;21949;-88
2022/01/05 11:14:36;;;;;;;;;;;;;;;6.34;100.00;96499.41;1607843;88;26123;-87
2022/01/05 11:17:05;;;;;;;;;;;;;;;6.35;100.00;96495.87;1610566;88;24460;-92
2022/01/05 11:19:36;;;;;;;;;;;;;;;6.36;100.00;96492.33;1620185;87;20245;-87
2022/01/05 11:22:04;;;;;;;;;;;;;;;6.36;100.00;96491.03;1629344;86;24770;-89
2022/01/05 11:24:32;;;;;;;;;;;;;;;6.35;100.00;96506.27;1627282;87;21978;-90
2022/01/05 11:26:58;;;;;;;;;;;;;;;6.38;100.00;96515.12;1625344;87;26023;-91
2022/01/05 11:29:25;;;;;;;;;;;;;;;6.40;100.00;96516.62;1623456;87;24683;-91
2022/01/05 11:31:51;;;;;;;;;;;;;;;6.41;100.00;96526.06;1624027;88;20279;-87
2022/01/05 11:34:17;;;;;;;;;;;;;;;6.42;100.00;96523.00;1624297;86;24723;-89
2022/01/05 11:36:43;;;;;;;;;;;;;;;6.43;100.00;96538.94;1607752;87;22048;-88
2022/01/05 11:39:11;;;;;;;;;;;;;;;6.43;100.00;96541.06;1606680;87;26032;-93
2022/01/05 11:41:38;;;;;;;;;;;;;;;6.46;100.00;96547.28;1611643;87;24328;-87
2022/01/05 11:44:05;;;;;;;;;;;;;;;6.47;100.00;96533.83;1587949;87;20193;-87
2022/01/05 11:46:32;;;;;;;;;;;;;;;6.49;100.00;96534.03;1605329;88;24751;-87
2022/01/05 11:49:08;;;;;;;;;;;;;;;6.55;100.00;96553.00;1606955;88;22300;-90
2022/01/05 11:51:45;;;;;;;;;;;;;;;6.60;100.00;96552.14;1611112;88;25924;-90
2022/01/05 11:54:16;;;;;;;;;;;;;;;6.61;100.00;96558.98;1618394;87;24433;-90
2022/01/05 11:56:44;;;;;;;;;;;;;;;6.62;100.00;96563.72;1620315;87;20500;-90
2022/01/05 11:59:35;;;;;;;;;;;;;;;6.57;100.00;96550.28;1625644;86;24706;-90
2022/01/05 12:02:04;;;;;;;;;;;;;;;6.61;100.00;96564.19;1623315;87;22765;-91
2022/01/05 12:04:34;;;;;;;;;;;;;;;6.62;100.00;96552.84;1619685;87;21376;-90
2022/01/05 12:07:03;;;;;;;;;;;;;;;6.67;100.00;96557.18;1596889;89;24545;-90
2022/01/05 12:09:33;;;;;;;;;;;;;;;6.70;100.00;96553.52;1602932;88;20643;-90
2022/01/05 12:12:17;;;;;;;;;;;;;;;6.70;100.00;96556.11;1606425;88;24744;-90
2022/01/05 12:14:44;;;;;;;;;;;;;;;6.73;100.00;96555.84;1624957;86;22185;-89
2022/01/05 12:17:14;;;;;;;;;;;;;;;6.77;100.00;96559.82;1588508;88;26032;-93
2022/01/05 12:19:48;;;;;;;;;;;;;;;6.79;100.00;96556.63;1602354;88;24467;-94
2022/01/05 12:22:16;;;;;;;;;;;;;;;6.80;100.00;96556.16;1577547;89;20489;-86
2022/01/05 12:24:56;;;;;;;;;;;;;;;6.79;100.00;96555.33;1610908;88;24869;-90
2022/01/05 12:27:23;;;;;;;;;;;;;;;6.83;100.00;96559.30;1608430;88;22005;-90
2022/01/05 12:33:16;;;;;;;;;;;;;;;6.86;100.00;96548.66;1600828;87;24656;-92
2022/01/05 12:35:43;;;;;;;;;;;;;;;6.85;100.00;96550.91;1611535;88;20192;-86
2022/01/05 12:38:31;;;;;;;;;;;;;;;6.84;100.00;96541.46;1606544;88;24928;-93
2022/01/05 12:40:58;;;;;;;;;;;;;;;6.82;100.00;96538.66;1619853;88;22110;-91
2022/01/05 12:43:34;;;;;;;;;;;;;;;6.83;100.00;96548.08;1630421;87;26088;-92
2022/01/05 12:46:11;;;;;;;;;;;;;;;6.84;100.00;96540.16;1599591;88;24452;-92
2022/01/05 12:48:46;;;;;;;;;;;;;;;6.83;100.00;96541.11;1629276;86;20288;-90
2022/01/05 12:51:21;;;;;;;;;;;;;;;6.84;100.00;96549.26;1628354;87;25415;-90
2022/01/05 12:56:46;;;;;;;;;;;;;;;6.87;100.00;96541.69;1600460;89;26266;-86
2022/01/05 13:02:28;;;;;;;;;;;;;;;6.86;100.00;96556.46;1586076;88;20245;-92
2022/01/05 13:05:19;;;;;;;;;;;;;;;6.85;100.00;96560.48;1600545;89;25054;-92